sensor_id;sensor_type;location;lat;lon;timestamp;P1;durP1;ratioP1;P2;durP2;ratioP2
30571;SDS011;17348;50.948;10.696;2023-02-01T00:00:42;10.77;;;2.87;;
30571;SDS011;17348;50.948;10.696;2023-02-01T00:03:44;6.87;;;2.83;;
30571;SDS011;17348;50.948;10.696;2023-02-01T00:06:46;15.67;;;3.30;;
30571;SDS011;17348;50.948;10.696;2023-02-01T00:09:49;25.13;;;4.17;;
30571;SDS011;17348;50.948;10.696;2023-02-01T00:12:51;7.30;;;2.93;;
30571;SDS011;17348;50.948;10.696;2023-02-01T00:15:54;10.93;;;3.20;;
30571;SDS011;17348;50.948;10.696;2023-02-01T00:19:04;13.43;;;3.43;;
30571;SDS011;17348;50.948;10.696;2023-02-01T00:22:08;11.33;;;3.87;;
30571;SDS011;17348;50.948;10.696;2023-02-01T00:25:11;13.20;;;3.20;;
30571;SDS011;17348;50.948;10.696;2023-02-01T00:28:13;13.50;;;3.10;;
30571;SDS011;17348;50.948;10.696;2023-02-01T00:31:17;18.83;;;3.67;;
30571;SDS011;17348;50.948;10.696;2023-02-01T00:34:19;8.60;;;3.27;;
30571;SDS011;17348;50.948;10.696;2023-02-01T00:37:22;10.50;;;3.13;;
30571;SDS011;17348;50.948;10.696;2023-02-01T00:40:24;13.23;;;3.20;;
30571;SDS011;17348;50.948;10.696;2023-02-01T00:43:26;9.30;;;3.17;;
30571;SDS011;17348;50.948;10.696;2023-02-01T00:46:30;12.97;;;3.47;;
30571;SDS011;17348;50.948;10.696;2023-02-01T00:49:32;20.37;;;4.17;;
30571;SDS011;17348;50.948;10.696;2023-02-01T00:52:35;19.97;;;3.93;;
30571;SDS011;17348;50.948;10.696;2023-02-01T00:55:37;15.77;;;2.97;;
30571;SDS011;17348;50.948;10.696;2023-02-01T00:58:39;18.80;;;4.10;;
30571;SDS011;17348;50.948;10.696;2023-02-01T01:01:44;26.63;;;3.40;;
30571;SDS011;17348;50.948;10.696;2023-02-01T01:04:46;10.50;;;3.17;;
30571;SDS011;17348;50.948;10.696;2023-02-01T01:07:48;13.33;;;2.97;;
30571;SDS011;17348;50.948;10.696;2023-02-01T01:10:50;24.10;;;4.40;;
30571;SDS011;17348;50.948;10.696;2023-02-01T01:13:53;16.73;;;3.40;;
30571;SDS011;17348;50.948;10.696;2023-02-01T01:16:58;19.57;;;3.57;;
30571;SDS011;17348;50.948;10.696;2023-02-01T01:20:00;14.23;;;3.43;;
30571;SDS011;17348;50.948;10.696;2023-02-01T01:23:02;24.00;;;4.03;;
30571;SDS011;17348;50.948;10.696;2023-02-01T01:26:05;19.57;;;3.40;;
30571;SDS011;17348;50.948;10.696;2023-02-01T01:29:08;14.47;;;3.47;;
30571;SDS011;17348;50.948;10.696;2023-02-01T01:32:12;10.43;;;3.33;;
30571;SDS011;17348;50.948;10.696;2023-02-01T01:35:15;19.77;;;2.80;;
30571;SDS011;17348;50.948;10.696;2023-02-01T01:38:17;18.80;;;2.83;;
30571;SDS011;17348;50.948;10.696;2023-02-01T01:41:20;14.80;;;3.30;;
30571;SDS011;17348;50.948;10.696;2023-02-01T01:48:07;14.02;;;3.05;;
30571;SDS011;17348;50.948;10.696;2023-02-01T01:51:13;14.67;;;2.80;;
30571;SDS011;17348;50.948;10.696;2023-02-01T01:54:19;10.83;;;3.90;;
30571;SDS011;17348;50.948;10.696;2023-02-01T01:57:26;15.77;;;3.43;;
30571;SDS011;17348;50.948;10.696;2023-02-01T02:00:33;18.57;;;3.43;;
30571;SDS011;17348;50.948;10.696;2023-02-01T02:03:39;11.30;;;3.13;;
30571;SDS011;17348;50.948;10.696;2023-02-01T02:06:45;15.70;;;3.37;;
30571;SDS011;17348;50.948;10.696;2023-02-01T02:09:52;22.50;;;3.77;;
30571;SDS011;17348;50.948;10.696;2023-02-01T02:12:55;13.50;;;3.33;;
30571;SDS011;17348;50.948;10.696;2023-02-01T02:16:02;13.07;;;3.30;;
30571;SDS011;17348;50.948;10.696;2023-02-01T02:19:43;19.30;;;3.60;;
30571;SDS011;17348;50.948;10.696;2023-02-01T02:23:12;12.33;;;2.70;;
30571;SDS011;17348;50.948;10.696;2023-02-01T02:33:53;9.43;;;3.70;;
30571;SDS011;17348;50.948;10.696;2023-02-01T02:37:03;15.38;;;3.67;;
30571;SDS011;17348;50.948;10.696;2023-02-01T02:40:14;20.10;;;4.03;;
30571;SDS011;17348;50.948;10.696;2023-02-01T02:43:23;19.20;;;3.97;;
30571;SDS011;17348;50.948;10.696;2023-02-01T02:46:50;11.93;;;3.40;;
30571;SDS011;17348;50.948;10.696;2023-02-01T02:50:15;21.00;;;3.90;;
30571;SDS011;17348;50.948;10.696;2023-02-01T02:53:40;10.27;;;3.37;;
30571;SDS011;17348;50.948;10.696;2023-02-01T02:57:07;13.73;;;3.50;;
30571;SDS011;17348;50.948;10.696;2023-02-01T03:00:32;14.93;;;3.00;;
30571;SDS011;17348;50.948;10.696;2023-02-01T03:03:52;10.67;;;2.30;;
30571;SDS011;17348;50.948;10.696;2023-02-01T03:07:13;8.43;;;2.47;;
30571;SDS011;17348;50.948;10.696;2023-02-01T03:10:50;7.97;;;2.40;;
30571;SDS011;17348;50.948;10.696;2023-02-01T03:14:00;13.50;;;2.50;;
30571;SDS011;17348;50.948;10.696;2023-02-01T03:17:08;9.37;;;1.80;;
30571;SDS011;17348;50.948;10.696;2023-02-01T03:20:16;4.03;;;2.10;;
30571;SDS011;17348;50.948;10.696;2023-02-01T03:23:23;9.83;;;2.17;;
30571;SDS011;17348;50.948;10.696;2023-02-01T03:26:30;7.67;;;2.33;;
30571;SDS011;17348;50.948;10.696;2023-02-01T03:29:37;4.07;;;1.90;;
30571;SDS011;17348;50.948;10.696;2023-02-01T03:32:43;6.23;;;2.40;;
30571;SDS011;17348;50.948;10.696;2023-02-01T03:36:14;3.77;;;2.00;;
30571;SDS011;17348;50.948;10.696;2023-02-01T03:39:25;7.93;;;2.70;;
30571;SDS011;17348;50.948;10.696;2023-02-01T03:45:39;13.33;;;2.40;;
30571;SDS011;17348;50.948;10.696;2023-02-01T03:48:45;13.17;;;3.27;;
30571;SDS011;17348;50.948;10.696;2023-02-01T03:51:49;11.07;;;3.00;;
30571;SDS011;17348;50.948;10.696;2023-02-01T03:54:54;13.77;;;4.17;;
30571;SDS011;17348;50.948;10.696;2023-02-01T03:57:58;16.37;;;3.70;;
30571;SDS011;17348;50.948;10.696;2023-02-01T04:01:05;12.00;;;3.40;;
30571;SDS011;17348;50.948;10.696;2023-02-01T04:04:08;19.13;;;4.23;;
30571;SDS011;17348;50.948;10.696;2023-02-01T04:07:11;14.47;;;3.40;;
30571;SDS011;17348;50.948;10.696;2023-02-01T04:10:15;15.60;;;3.50;;
30571;SDS011;17348;50.948;10.696;2023-02-01T04:13:17;15.37;;;3.67;;
30571;SDS011;17348;50.948;10.696;2023-02-01T04:16:20;10.30;;;3.60;;
30571;SDS011;17348;50.948;10.696;2023-02-01T04:19:22;17.63;;;3.20;;
30571;SDS011;17348;50.948;10.696;2023-02-01T04:22:24;8.40;;;2.67;;
30571;SDS011;17348;50.948;10.696;2023-02-01T04:25:28;16.23;;;3.57;;
30571;SDS011;17348;50.948;10.696;2023-02-01T04:28:31;19.43;;;3.20;;
30571;SDS011;17348;50.948;10.696;2023-02-01T04:31:33;9.90;;;3.40;;
30571;SDS011;17348;50.948;10.696;2023-02-01T04:34:36;10.10;;;2.83;;
30571;SDS011;17348;50.948;10.696;2023-02-01T04:37:39;17.50;;;3.60;;
30571;SDS011;17348;50.948;10.696;2023-02-01T04:40:42;12.40;;;3.57;;
30571;SDS011;17348;50.948;10.696;2023-02-01T04:43:45;17.97;;;3.77;;
30571;SDS011;17348;50.948;10.696;2023-02-01T04:46:47;8.00;;;3.10;;
30571;SDS011;17348;50.948;10.696;2023-02-01T04:49:50;17.60;;;3.10;;
30571;SDS011;17348;50.948;10.696;2023-02-01T04:52:52;19.43;;;3.33;;
30571;SDS011;17348;50.948;10.696;2023-02-01T04:55:56;13.07;;;3.20;;
30571;SDS011;17348;50.948;10.696;2023-02-01T04:58:58;16.53;;;3.90;;
30571;SDS011;17348;50.948;10.696;2023-02-01T05:02:00;21.50;;;4.10;;
30571;SDS011;17348;50.948;10.696;2023-02-01T05:05:03;14.73;;;3.13;;
30571;SDS011;17348;50.948;10.696;2023-02-01T05:08:06;16.10;;;3.30;;
30571;SDS011;17348;50.948;10.696;2023-02-01T05:11:09;14.17;;;2.73;;
30571;SDS011;17348;50.948;10.696;2023-02-01T05:14:32;7.90;;;3.83;;
30571;SDS011;17348;50.948;10.696;2023-02-01T05:17:34;23.63;;;3.87;;
30571;SDS011;17348;50.948;10.696;2023-02-01T05:20:36;23.07;;;3.93;;
30571;SDS011;17348;50.948;10.696;2023-02-01T05:23:38;14.93;;;3.73;;
30571;SDS011;17348;50.948;10.696;2023-02-01T05:26:56;21.37;;;3.97;;
30571;SDS011;17348;50.948;10.696;2023-02-01T05:29:58;30.13;;;3.90;;
30571;SDS011;17348;50.948;10.696;2023-02-01T05:33:01;12.37;;;3.43;;
30571;SDS011;17348;50.948;10.696;2023-02-01T05:36:03;21.00;;;4.83;;
30571;SDS011;17348;50.948;10.696;2023-02-01T05:39:06;17.93;;;3.63;;
30571;SDS011;17348;50.948;10.696;2023-02-01T05:42:10;13.80;;;3.80;;
30571;SDS011;17348;50.948;10.696;2023-02-01T05:45:12;10.90;;;3.47;;
30571;SDS011;17348;50.948;10.696;2023-02-01T05:48:14;11.70;;;3.87;;
30571;SDS011;17348;50.948;10.696;2023-02-01T05:51:17;16.60;;;3.40;;
30571;SDS011;17348;50.948;10.696;2023-02-01T05:54:19;11.40;;;2.97;;
30571;SDS011;17348;50.948;10.696;2023-02-01T05:57:23;20.00;;;3.27;;
30571;SDS011;17348;50.948;10.696;2023-02-01T06:00:25;13.47;;;2.70;;
30571;SDS011;17348;50.948;10.696;2023-02-01T06:03:28;17.77;;;3.70;;
30571;SDS011;17348;50.948;10.696;2023-02-01T06:06:30;17.50;;;3.67;;
30571;SDS011;17348;50.948;10.696;2023-02-01T06:09:33;26.90;;;3.60;;
30571;SDS011;17348;50.948;10.696;2023-02-01T06:12:37;15.03;;;2.83;;
30571;SDS011;17348;50.948;10.696;2023-02-01T06:15:41;13.30;;;3.47;;
30571;SDS011;17348;50.948;10.696;2023-02-01T06:18:44;19.03;;;3.07;;
30571;SDS011;17348;50.948;10.696;2023-02-01T06:21:47;10.57;;;3.10;;
30571;SDS011;17348;50.948;10.696;2023-02-01T06:24:49;18.00;;;3.37;;
30571;SDS011;17348;50.948;10.696;2023-02-01T06:27:53;8.30;;;2.60;;
30571;SDS011;17348;50.948;10.696;2023-02-01T06:30:55;13.00;;;2.93;;
30571;SDS011;17348;50.948;10.696;2023-02-01T06:33:58;14.00;;;2.67;;
30571;SDS011;17348;50.948;10.696;2023-02-01T06:37:00;14.37;;;2.03;;
30571;SDS011;17348;50.948;10.696;2023-02-01T06:40:03;11.07;;;3.20;;
30571;SDS011;17348;50.948;10.696;2023-02-01T06:43:10;22.40;;;3.07;;
30571;SDS011;17348;50.948;10.696;2023-02-01T06:46:13;8.23;;;2.13;;
30571;SDS011;17348;50.948;10.696;2023-02-01T06:49:16;24.37;;;4.17;;
30571;SDS011;17348;50.948;10.696;2023-02-01T06:52:18;27.70;;;3.77;;
30571;SDS011;17348;50.948;10.696;2023-02-01T06:55:21;20.97;;;2.23;;
30571;SDS011;17348;50.948;10.696;2023-02-01T06:58:27;15.17;;;3.77;;
30571;SDS011;17348;50.948;10.696;2023-02-01T07:01:30;16.27;;;3.03;;
30571;SDS011;17348;50.948;10.696;2023-02-01T07:04:32;10.33;;;2.30;;
30571;SDS011;17348;50.948;10.696;2023-02-01T07:07:35;14.97;;;2.60;;
30571;SDS011;17348;50.948;10.696;2023-02-01T07:10:37;11.73;;;3.07;;
30571;SDS011;17348;50.948;10.696;2023-02-01T07:13:41;16.87;;;2.43;;
30571;SDS011;17348;50.948;10.696;2023-02-01T07:16:44;11.30;;;2.80;;
30571;SDS011;17348;50.948;10.696;2023-02-01T07:19:46;15.37;;;2.93;;
30571;SDS011;17348;50.948;10.696;2023-02-01T07:22:49;24.40;;;3.20;;
30571;SDS011;17348;50.948;10.696;2023-02-01T07:25:57;11.17;;;2.93;;
30571;SDS011;17348;50.948;10.696;2023-02-01T07:29:02;15.20;;;2.67;;
30571;SDS011;17348;50.948;10.696;2023-02-01T07:32:04;12.77;;;2.93;;
30571;SDS011;17348;50.948;10.696;2023-02-01T07:35:07;11.23;;;2.43;;
30571;SDS011;17348;50.948;10.696;2023-02-01T07:38:09;10.47;;;2.47;;
30571;SDS011;17348;50.948;10.696;2023-02-01T07:41:12;16.77;;;2.53;;
30571;SDS011;17348;50.948;10.696;2023-02-01T07:44:16;9.83;;;2.47;;
30571;SDS011;17348;50.948;10.696;2023-02-01T07:47:23;26.60;;;3.27;;
30571;SDS011;17348;50.948;10.696;2023-02-01T07:50:25;16.23;;;3.43;;
30571;SDS011;17348;50.948;10.696;2023-02-01T07:53:28;8.83;;;2.93;;
30571;SDS011;17348;50.948;10.696;2023-02-01T07:56:32;26.00;;;4.17;;
30571;SDS011;17348;50.948;10.696;2023-02-01T07:59:35;18.93;;;3.20;;
30571;SDS011;17348;50.948;10.696;2023-02-01T08:02:58;17.13;;;2.97;;
30571;SDS011;17348;50.948;10.696;2023-02-01T08:06:01;14.63;;;3.20;;
30571;SDS011;17348;50.948;10.696;2023-02-01T08:09:04;18.27;;;3.90;;
30571;SDS011;17348;50.948;10.696;2023-02-01T08:12:08;18.40;;;3.73;;
30571;SDS011;17348;50.948;10.696;2023-02-01T08:15:12;21.37;;;3.17;;
30571;SDS011;17348;50.948;10.696;2023-02-01T08:18:14;14.07;;;3.43;;
30571;SDS011;17348;50.948;10.696;2023-02-01T08:21:18;22.07;;;3.10;;
30571;SDS011;17348;50.948;10.696;2023-02-01T08:24:23;22.03;;;3.27;;
30571;SDS011;17348;50.948;10.696;2023-02-01T08:27:25;11.57;;;4.20;;
30571;SDS011;17348;50.948;10.696;2023-02-01T08:30:29;26.57;;;8.57;;
30571;SDS011;17348;50.948;10.696;2023-02-01T08:33:32;26.63;;;5.60;;
30571;SDS011;17348;50.948;10.696;2023-02-01T08:36:34;13.70;;;3.73;;
30571;SDS011;17348;50.948;10.696;2023-02-01T08:39:38;8.90;;;2.77;;
30571;SDS011;17348;50.948;10.696;2023-02-01T08:42:43;21.90;;;3.50;;
30571;SDS011;17348;50.948;10.696;2023-02-01T08:45:56;21.63;;;4.63;;
30571;SDS011;17348;50.948;10.696;2023-02-01T08:48:58;18.30;;;3.90;;
30571;SDS011;17348;50.948;10.696;2023-02-01T08:52:01;15.30;;;3.17;;
30571;SDS011;17348;50.948;10.696;2023-02-01T08:55:03;18.03;;;3.70;;
30571;SDS011;17348;50.948;10.696;2023-02-01T08:58:07;7.63;;;3.40;;
30571;SDS011;17348;50.948;10.696;2023-02-01T09:01:11;18.63;;;3.10;;
30571;SDS011;17348;50.948;10.696;2023-02-01T09:04:15;17.27;;;3.73;;
30571;SDS011;17348;50.948;10.696;2023-02-01T09:07:18;16.40;;;3.07;;
30571;SDS011;17348;50.948;10.696;2023-02-01T09:10:20;16.87;;;3.33;;
30571;SDS011;17348;50.948;10.696;2023-02-01T09:13:23;15.23;;;2.90;;
30571;SDS011;17348;50.948;10.696;2023-02-01T09:16:27;15.27;;;3.77;;
30571;SDS011;17348;50.948;10.696;2023-02-01T09:19:29;27.03;;;3.23;;
30571;SDS011;17348;50.948;10.696;2023-02-01T09:22:31;11.83;;;2.37;;
30571;SDS011;17348;50.948;10.696;2023-02-01T09:25:36;9.60;;;2.40;;
30571;SDS011;17348;50.948;10.696;2023-02-01T09:28:38;11.70;;;3.30;;
30571;SDS011;17348;50.948;10.696;2023-02-01T09:31:42;14.07;;;2.83;;
30571;SDS011;17348;50.948;10.696;2023-02-01T09:34:45;26.47;;;3.57;;
30571;SDS011;17348;50.948;10.696;2023-02-01T09:37:47;10.87;;;2.73;;
30571;SDS011;17348;50.948;10.696;2023-02-01T09:40:49;15.33;;;2.97;;
30571;SDS011;17348;50.948;10.696;2023-02-01T09:43:53;16.30;;;2.93;;
30571;SDS011;17348;50.948;10.696;2023-02-01T09:47:02;8.10;;;2.33;;
30571;SDS011;17348;50.948;10.696;2023-02-01T09:50:08;17.17;;;2.93;;
30571;SDS011;17348;50.948;10.696;2023-02-01T09:53:18;23.90;;;7.47;;
30571;SDS011;17348;50.948;10.696;2023-02-01T09:56:26;12.43;;;3.87;;
30571;SDS011;17348;50.948;10.696;2023-02-01T09:59:38;15.23;;;3.37;;
30571;SDS011;17348;50.948;10.696;2023-02-01T10:02:44;14.37;;;3.00;;
30571;SDS011;17348;50.948;10.696;2023-02-01T10:05:52;18.23;;;3.30;;
30571;SDS011;17348;50.948;10.696;2023-02-01T10:09:13;16.50;;;4.07;;
30571;SDS011;17348;50.948;10.696;2023-02-01T10:12:28;12.43;;;3.77;;
30571;SDS011;17348;50.948;10.696;2023-02-01T10:15:46;14.10;;;4.47;;
30571;SDS011;17348;50.948;10.696;2023-02-01T10:22:42;6.07;;;2.27;;
30571;SDS011;17348;50.948;10.696;2023-02-01T10:25:49;15.50;;;2.17;;
30571;SDS011;17348;50.948;10.696;2023-02-01T10:28:57;3.63;;;1.83;;
30571;SDS011;17348;50.948;10.696;2023-02-01T10:32:02;10.60;;;2.50;;
30571;SDS011;17348;50.948;10.696;2023-02-01T10:35:14;9.47;;;2.37;;
30571;SDS011;17348;50.948;10.696;2023-02-01T10:38:20;6.13;;;2.17;;
30571;SDS011;17348;50.948;10.696;2023-02-01T10:41:30;9.73;;;2.53;;
30571;SDS011;17348;50.948;10.696;2023-02-01T10:44:35;15.47;;;3.07;;
30571;SDS011;17348;50.948;10.696;2023-02-01T10:47:43;18.77;;;2.50;;
30571;SDS011;17348;50.948;10.696;2023-02-01T10:50:49;9.20;;;3.03;;
30571;SDS011;17348;50.948;10.696;2023-02-01T10:53:57;6.47;;;2.77;;
30571;SDS011;17348;50.948;10.696;2023-02-01T10:57:06;10.67;;;2.37;;
30571;SDS011;17348;50.948;10.696;2023-02-01T11:00:18;11.27;;;2.37;;
30571;SDS011;17348;50.948;10.696;2023-02-01T11:03:27;7.50;;;2.20;;
30571;SDS011;17348;50.948;10.696;2023-02-01T11:06:37;12.03;;;2.73;;
30571;SDS011;17348;50.948;10.696;2023-02-01T11:09:41;6.03;;;1.97;;
30571;SDS011;17348;50.948;10.696;2023-02-01T11:12:52;9.60;;;2.17;;
30571;SDS011;17348;50.948;10.696;2023-02-01T11:15:56;14.67;;;2.00;;
30571;SDS011;17348;50.948;10.696;2023-02-01T11:18:59;10.13;;;2.20;;
30571;SDS011;17348;50.948;10.696;2023-02-01T11:22:03;8.80;;;2.53;;
30571;SDS011;17348;50.948;10.696;2023-02-01T11:25:07;4.97;;;1.43;;
30571;SDS011;17348;50.948;10.696;2023-02-01T11:28:12;6.57;;;1.90;;
30571;SDS011;17348;50.948;10.696;2023-02-01T11:31:16;9.27;;;2.00;;
30571;SDS011;17348;50.948;10.696;2023-02-01T11:34:21;8.07;;;2.03;;
30571;SDS011;17348;50.948;10.696;2023-02-01T11:37:28;7.90;;;2.13;;
30571;SDS011;17348;50.948;10.696;2023-02-01T11:40:34;7.70;;;2.03;;
30571;SDS011;17348;50.948;10.696;2023-02-01T11:43:37;6.20;;;1.40;;
30571;SDS011;17348;50.948;10.696;2023-02-01T11:46:51;9.60;;;2.87;;
30571;SDS011;17348;50.948;10.696;2023-02-01T11:49:54;19.10;;;2.43;;
30571;SDS011;17348;50.948;10.696;2023-02-01T11:53:08;9.07;;;1.73;;
30571;SDS011;17348;50.948;10.696;2023-02-01T11:56:23;7.67;;;2.07;;
30571;SDS011;17348;50.948;10.696;2023-02-01T11:59:35;13.73;;;2.40;;
30571;SDS011;17348;50.948;10.696;2023-02-01T12:03:01;18.60;;;3.37;;
30571;SDS011;17348;50.948;10.696;2023-02-01T12:06:37;13.13;;;3.17;;
30571;SDS011;17348;50.948;10.696;2023-02-01T12:09:58;15.87;;;3.53;;
30571;SDS011;17348;50.948;10.696;2023-02-01T12:13:14;20.30;;;3.43;;
30571;SDS011;17348;50.948;10.696;2023-02-01T12:16:28;13.53;;;2.80;;
30571;SDS011;17348;50.948;10.696;2023-02-01T12:19:41;10.30;;;2.67;;
30571;SDS011;17348;50.948;10.696;2023-02-01T12:23:03;14.10;;;2.97;;
30571;SDS011;17348;50.948;10.696;2023-02-01T12:26:26;13.40;;;2.80;;
30571;SDS011;17348;50.948;10.696;2023-02-01T12:29:47;16.80;;;2.90;;
30571;SDS011;17348;50.948;10.696;2023-02-01T12:33:01;14.37;;;3.30;;
30571;SDS011;17348;50.948;10.696;2023-02-01T12:36:11;11.25;;;3.10;;
30571;SDS011;17348;50.948;10.696;2023-02-01T12:39:21;8.50;;;2.70;;
30571;SDS011;17348;50.948;10.696;2023-02-01T12:42:28;16.17;;;3.17;;
30571;SDS011;17348;50.948;10.696;2023-02-01T12:45:35;16.20;;;2.83;;
30571;SDS011;17348;50.948;10.696;2023-02-01T12:48:42;13.80;;;2.73;;
30571;SDS011;17348;50.948;10.696;2023-02-01T12:51:54;11.73;;;3.20;;
30571;SDS011;17348;50.948;10.696;2023-02-01T12:55:02;25.57;;;3.07;;
30571;SDS011;17348;50.948;10.696;2023-02-01T13:01:18;13.50;;;2.73;;
30571;SDS011;17348;50.948;10.696;2023-02-01T13:04:26;11.83;;;2.37;;
30571;SDS011;17348;50.948;10.696;2023-02-01T13:07:34;11.43;;;2.33;;
30571;SDS011;17348;50.948;10.696;2023-02-01T13:10:45;12.87;;;3.73;;
30571;SDS011;17348;50.948;10.696;2023-02-01T13:13:54;17.67;;;3.17;;
30571;SDS011;17348;50.948;10.696;2023-02-01T13:17:02;7.75;;;2.90;;
30571;SDS011;17348;50.948;10.696;2023-02-01T13:20:07;13.10;;;3.43;;
30571;SDS011;17348;50.948;10.696;2023-02-01T13:23:20;14.33;;;3.10;;
30571;SDS011;17348;50.948;10.696;2023-02-01T13:26:27;13.87;;;3.40;;
30571;SDS011;17348;50.948;10.696;2023-02-01T13:29:31;12.03;;;3.10;;
30571;SDS011;17348;50.948;10.696;2023-02-01T13:39:47;11.50;;;3.60;;
30571;SDS011;17348;50.948;10.696;2023-02-01T13:43:02;22.97;;;3.30;;
30571;SDS011;17348;50.948;10.696;2023-02-01T13:46:10;11.20;;;2.67;;
30571;SDS011;17348;50.948;10.696;2023-02-01T13:49:18;13.63;;;3.93;;
30571;SDS011;17348;50.948;10.696;2023-02-01T13:52:29;13.13;;;3.50;;
30571;SDS011;17348;50.948;10.696;2023-02-01T13:55:37;12.50;;;3.70;;
30571;SDS011;17348;50.948;10.696;2023-02-01T13:58:42;11.97;;;2.60;;
30571;SDS011;17348;50.948;10.696;2023-02-01T14:01:48;10.67;;;2.67;;
30571;SDS011;17348;50.948;10.696;2023-02-01T14:04:50;8.63;;;2.23;;
30571;SDS011;17348;50.948;10.696;2023-02-01T14:08:02;11.87;;;3.13;;
30571;SDS011;17348;50.948;10.696;2023-02-01T14:14:49;5.87;;;2.23;;
30571;SDS011;17348;50.948;10.696;2023-02-01T14:17:53;12.03;;;3.30;;
30571;SDS011;17348;50.948;10.696;2023-02-01T14:21:10;8.83;;;2.37;;
30571;SDS011;17348;50.948;10.696;2023-02-01T14:24:20;10.43;;;2.67;;
30571;SDS011;17348;50.948;10.696;2023-02-01T14:27:27;8.43;;;1.87;;
30571;SDS011;17348;50.948;10.696;2023-02-01T14:30:33;10.03;;;2.90;;
30571;SDS011;17348;50.948;10.696;2023-02-01T14:33:40;11.83;;;2.67;;
30571;SDS011;17348;50.948;10.696;2023-02-01T14:36:46;19.63;;;3.50;;
30571;SDS011;17348;50.948;10.696;2023-02-01T14:39:55;11.87;;;2.27;;
30571;SDS011;17348;50.948;10.696;2023-02-01T14:43:01;4.50;;;1.90;;
30571;SDS011;17348;50.948;10.696;2023-02-01T14:46:04;12.57;;;2.30;;
30571;SDS011;17348;50.948;10.696;2023-02-01T14:49:08;8.30;;;2.27;;
30571;SDS011;17348;50.948;10.696;2023-02-01T14:52:12;6.90;;;2.17;;
30571;SDS011;17348;50.948;10.696;2023-02-01T14:55:21;7.37;;;1.73;;
30571;SDS011;17348;50.948;10.696;2023-02-01T14:58:31;9.97;;;2.20;;
30571;SDS011;17348;50.948;10.696;2023-02-01T15:01:38;10.83;;;2.03;;
30571;SDS011;17348;50.948;10.696;2023-02-01T15:04:54;5.27;;;2.03;;
30571;SDS011;17348;50.948;10.696;2023-02-01T15:07:59;9.77;;;1.80;;
30571;SDS011;17348;50.948;10.696;2023-02-01T15:11:08;14.90;;;1.93;;
30571;SDS011;17348;50.948;10.696;2023-02-01T15:14:15;13.33;;;2.73;;
30571;SDS011;17348;50.948;10.696;2023-02-01T15:17:18;14.97;;;2.20;;
30571;SDS011;17348;50.948;10.696;2023-02-01T15:20:24;14.67;;;2.10;;
30571;SDS011;17348;50.948;10.696;2023-02-01T15:23:29;9.57;;;2.93;;
30571;SDS011;17348;50.948;10.696;2023-02-01T15:26:31;7.57;;;2.00;;
30571;SDS011;17348;50.948;10.696;2023-02-01T15:29:34;10.57;;;1.40;;
30571;SDS011;17348;50.948;10.696;2023-02-01T15:32:37;10.17;;;1.90;;
30571;SDS011;17348;50.948;10.696;2023-02-01T15:35:43;16.17;;;2.70;;
30571;SDS011;17348;50.948;10.696;2023-02-01T15:38:47;8.50;;;1.30;;
30571;SDS011;17348;50.948;10.696;2023-02-01T15:41:51;13.43;;;1.90;;
30571;SDS011;17348;50.948;10.696;2023-02-01T15:44:55;9.43;;;1.47;;
30571;SDS011;17348;50.948;10.696;2023-02-01T15:47:58;15.20;;;2.13;;
30571;SDS011;17348;50.948;10.696;2023-02-01T15:51:03;11.60;;;2.07;;
30571;SDS011;17348;50.948;10.696;2023-02-01T15:54:06;5.67;;;2.37;;
30571;SDS011;17348;50.948;10.696;2023-02-01T15:57:18;10.13;;;1.47;;
30571;SDS011;17348;50.948;10.696;2023-02-01T16:00:23;5.43;;;1.57;;
30571;SDS011;17348;50.948;10.696;2023-02-01T16:03:33;13.13;;;1.73;;
30571;SDS011;17348;50.948;10.696;2023-02-01T16:06:44;12.33;;;2.30;;
30571;SDS011;17348;50.948;10.696;2023-02-01T16:09:50;11.90;;;1.83;;
30571;SDS011;17348;50.948;10.696;2023-02-01T16:12:54;4.57;;;1.77;;
30571;SDS011;17348;50.948;10.696;2023-02-01T16:16:00;13.97;;;2.13;;
30571;SDS011;17348;50.948;10.696;2023-02-01T16:19:04;9.93;;;3.23;;
30571;SDS011;17348;50.948;10.696;2023-02-01T16:22:08;8.17;;;2.17;;
30571;SDS011;17348;50.948;10.696;2023-02-01T16:25:10;4.47;;;1.73;;
30571;SDS011;17348;50.948;10.696;2023-02-01T16:28:12;17.93;;;2.60;;
30571;SDS011;17348;50.948;10.696;2023-02-01T16:31:15;6.70;;;3.10;;
30571;SDS011;17348;50.948;10.696;2023-02-01T16:34:20;13.00;;;4.57;;
30571;SDS011;17348;50.948;10.696;2023-02-01T16:37:24;27.70;;;7.00;;
30571;SDS011;17348;50.948;10.696;2023-02-01T16:40:28;33.30;;;9.70;;
30571;SDS011;17348;50.948;10.696;2023-02-01T16:43:31;26.57;;;8.23;;
30571;SDS011;17348;50.948;10.696;2023-02-01T16:46:34;11.90;;;4.00;;
30571;SDS011;17348;50.948;10.696;2023-02-01T16:49:40;38.40;;;9.53;;
30571;SDS011;17348;50.948;10.696;2023-02-01T16:52:45;15.93;;;5.70;;
30571;SDS011;17348;50.948;10.696;2023-02-01T16:55:48;14.30;;;3.17;;
30571;SDS011;17348;50.948;10.696;2023-02-01T16:58:52;12.67;;;4.40;;
30571;SDS011;17348;50.948;10.696;2023-02-01T17:01:54;13.97;;;4.43;;
30571;SDS011;17348;50.948;10.696;2023-02-01T17:04:57;10.93;;;4.20;;
30571;SDS011;17348;50.948;10.696;2023-02-01T17:08:01;22.33;;;5.40;;
30571;SDS011;17348;50.948;10.696;2023-02-01T17:11:07;10.00;;;3.83;;
30571;SDS011;17348;50.948;10.696;2023-02-01T17:14:14;9.90;;;3.70;;
30571;SDS011;17348;50.948;10.696;2023-02-01T17:17:17;5.03;;;2.47;;
30571;SDS011;17348;50.948;10.696;2023-02-01T17:20:21;2.27;;;1.30;;
30571;SDS011;17348;50.948;10.696;2023-02-01T17:23:27;1.00;;;0.90;;
30571;SDS011;17348;50.948;10.696;2023-02-01T17:26:30;0.47;;;0.47;;
30571;SDS011;17348;50.948;10.696;2023-02-01T17:29:33;0.97;;;0.60;;
30571;SDS011;17348;50.948;10.696;2023-02-01T17:32:35;1.50;;;0.60;;
30571;SDS011;17348;50.948;10.696;2023-02-01T17:35:38;3.63;;;1.00;;
30571;SDS011;17348;50.948;10.696;2023-02-01T17:38:42;4.23;;;1.77;;
30571;SDS011;17348;50.948;10.696;2023-02-01T17:41:45;3.27;;;2.00;;
30571;SDS011;17348;50.948;10.696;2023-02-01T17:44:48;4.43;;;1.83;;
30571;SDS011;17348;50.948;10.696;2023-02-01T17:47:51;2.43;;;1.63;;
30571;SDS011;17348;50.948;10.696;2023-02-01T17:50:53;2.93;;;1.57;;
30571;SDS011;17348;50.948;10.696;2023-02-01T17:53:59;3.57;;;2.10;;
30571;SDS011;17348;50.948;10.696;2023-02-01T17:57:01;8.10;;;2.67;;
30571;SDS011;17348;50.948;10.696;2023-02-01T18:00:10;6.53;;;2.73;;
30571;SDS011;17348;50.948;10.696;2023-02-01T18:03:23;8.07;;;3.33;;
30571;SDS011;17348;50.948;10.696;2023-02-01T18:06:33;10.07;;;3.10;;
30571;SDS011;17348;50.948;10.696;2023-02-01T18:09:38;7.13;;;3.03;;
30571;SDS011;17348;50.948;10.696;2023-02-01T18:12:40;7.77;;;2.73;;
30571;SDS011;17348;50.948;10.696;2023-02-01T18:15:43;2.43;;;1.23;;
30571;SDS011;17348;50.948;10.696;2023-02-01T18:18:45;2.10;;;1.70;;
30571;SDS011;17348;50.948;10.696;2023-02-01T18:21:48;14.13;;;2.13;;
30571;SDS011;17348;50.948;10.696;2023-02-01T18:24:54;5.67;;;1.37;;
30571;SDS011;17348;50.948;10.696;2023-02-01T18:27:56;2.60;;;1.10;;
30571;SDS011;17348;50.948;10.696;2023-02-01T18:30:58;2.77;;;0.50;;
30571;SDS011;17348;50.948;10.696;2023-02-01T18:34:02;3.20;;;0.47;;
30571;SDS011;17348;50.948;10.696;2023-02-01T18:37:04;3.30;;;0.87;;
30571;SDS011;17348;50.948;10.696;2023-02-01T18:40:11;1.17;;;0.87;;
30571;SDS011;17348;50.948;10.696;2023-02-01T18:43:15;6.73;;;4.70;;
30571;SDS011;17348;50.948;10.696;2023-02-01T18:46:17;1.13;;;0.80;;